Data for 05/28/2014

Time Sea-Level Adjusted Pressure Absolute Pressure Temperature Relative Humidity Dew Point   
(mb) (inHg) (mb) (inHg) (C) (F) (%) (C) (F)
00:05 1017 30.03 846 24.98 14.6 58.3 72 9.7 49.4
00:10 1017 30.03 846 24.98 14.6 58.3 72 9.6 49.3
00:15 1017 30.03 846 24.98 14.7 58.4 72 9.6 49.4
00:20 1017 30.03 846 24.98 14.6 58.3 71 9.5 49.2
00:25 1017 30.03 846 24.98 14.6 58.3 71 9.6 49.2
00:30 1016 30 846 24.98 14.6 58.2 72 9.5 49.2
00:35 1016 30 846 24.98 14.5 58.1 72 9.5 49.2
00:40 1016 30 846 24.98 14.5 58.1 72 9.6 49.2
00:45 1016 30 846 24.98 14.5 58.2 72 9.6 49.2
00:50 1016 30 845 24.95 14.6 58.2 72 9.7 49.4
00:55 1016 30 845 24.95 14.5 58.1 72 9.6 49.3
01:00 1016 30 845 24.95 14.5 58.2 72 9.6 49.2
01:05 1016 30 845 24.95 14.6 58.2 72 9.6 49.3
01:10 1016 30 845 24.95 14.5 58.2 72 9.6 49.3
01:15 1016 30 845 24.95 14.5 58.1 72 9.6 49.3
01:20 1016 30 845 24.95 14.5 58 72 9.6 49.3
01:25 1016 30 845 24.95 14.4 58 72 9.6 49.3
01:30 1016 30 845 24.95 14.5 58 72 9.6 49.2
01:35 1016 30 845 24.95 14.5 58 72 9.5 49.2
01:40 1016 30 845 24.95 14.4 58 72 9.5 49
01:45 1016 30 845 24.95 14.4 58 72 9.5 49.1
01:50 1016 30 845 24.95 14.4 58 72 9.5 49.1
01:55 1016 30 845 24.95 14.4 57.9 72 9.5 49
02:00 1015 29.97 845 24.95 14.4 57.9 72 9.5 49
02:05 1015 29.97 845 24.95 14.4 57.9 72 9.5 49.1
02:10 1015 29.97 844 24.92 14.4 57.8 72 9.4 48.9
02:15 1015 29.97 844 24.92 14.3 57.8 72 9.4 48.9
02:20 1015 29.97 844 24.92 14.3 57.7 73 9.5 49
02:25 1015 29.97 844 24.92 14.2 57.5 73 9.4 48.9
02:30 1015 29.97 844 24.92 14.1 57.4 73 9.4 48.9
02:35 1015 29.97 844 24.92 14 57.2 73 9.3 48.7
02:40 1015 29.97 844 24.92 13.9 57 74 9.3 48.8
02:45 1015 29.97 844 24.92 14.1 57.4 73 9.3 48.7
02:50 1015 29.97 844 24.92 14.2 57.5 73 9.4 49
02:55 1015 29.97 844 24.92 14 57.2 74 9.4 49
03:00 1015 29.97 844 24.92 13.9 57.1 74 9.4 48.9
03:05 1015 29.97 844 24.92 14 57.1 74 9.4 48.9
03:10 1015 29.97 844 24.92 13.8 56.9 74 9.3 48.7
03:15 1015 29.97 844 24.92 13.7 56.7 74 9.2 48.6
03:20 1015 29.97 844 24.92 13.7 56.6 74 9.2 48.5
03:25 1015 29.97 844 24.92 13.7 56.6 74 9.3 48.7
03:30 1015 29.97 844 24.92 13.6 56.5 74 9.2 48.6
03:35 1015 29.97 844 24.92 13.6 56.6 74 9.1 48.3
03:40 1015 29.97 844 24.92 13.6 56.5 74 9.1 48.4
03:45 1015 29.97 844 24.92 13.6 56.5 74 9.2 48.5
03:50 1015 29.97 844 24.92 13.6 56.4 74 9.1 48.4
03:55 1015 29.97 844 24.92 13.5 56.2 74 9.1 48.3
04:00 1015 29.97 844 24.92 13.4 56.1 75 9 48.2
04:05 1015 29.97 844 24.92 13.3 56 74 8.9 48
04:10 1015 29.97 844 24.92 13.3 56 74 8.9 48
04:15 1014 29.94 844 24.92 13.3 55.9 73 8.6 47.5
04:20 1015 29.97 844 24.92 13.3 55.9 73 8.6 47.4
04:25 1015 29.97 844 24.92 13.2 55.8 73 8.6 47.5
04:30 1015 29.97 844 24.92 13.1 55.7 72 8.3 47
04:35 1015 29.97 844 24.92 13.2 55.7 72 8.2 46.8
04:40 1014 29.94 844 24.92 13.2 55.7 71 8 46.4
04:45 1015 29.97 844 24.92 13.2 55.8 71 8.1 46.5
04:50 1015 29.97 844 24.92 13.2 55.7 71 8 46.3
04:55 1015 29.97 844 24.92 13.2 55.8 70 7.9 46.2
05:00 1015 29.97 844 24.92 13.2 55.8 70 7.9 46.3
05:05 1015 29.97 844 24.92 13.2 55.8 69 7.7 45.8
05:10 1015 29.97 844 24.92 13.3 55.9 70 8 46.3
05:15 1015 29.97 844 24.92 13.1 55.5 71 8 46.4
05:20 1015 29.97 844 24.92 12.9 55.2 72 8 46.3
05:25 1015 29.97 844 24.92 12.8 55 72 7.8 46.1
05:30 1015 29.97 844 24.92 12.7 54.9 71 7.6 45.6
05:35 1015 29.97 844 24.92 12.9 55.3 70 7.6 45.6
05:40 1015 29.97 844 24.92 13 55.5 70 7.7 45.8
05:45 1015 29.97 844 24.92 12.8 55.1 71 7.8 46
05:50 1015 29.97 844 24.92 12.7 54.9 71 7.6 45.7
05:55 1015 29.97 844 24.92 12.7 54.8 71 7.5 45.6
06:00 1015 29.97 844 24.92 12.7 54.9 71 7.6 45.7
06:05 1015 29.97 844 24.92 12.7 54.9 71 7.6 45.7
06:10 1015 29.97 844 24.92 12.9 55.2 70 7.6 45.7
06:15 1015 29.97 844 24.92 13.1 55.5 69 7.5 45.6
06:20 1015 29.97 844 24.92 13 55.3 70 7.7 45.9
06:25 1015 29.97 844 24.92 12.8 55.1 71 7.8 46
06:30 1015 29.97 844 24.92 12.7 54.9 71 7.7 45.8
06:35 1015 29.97 844 24.92 13 55.4 69 7.5 45.5
06:40 1015 29.97 844 24.92 13.5 56.4 67 7.6 45.7
06:45 1015 29.97 844 24.92 13.9 57.1 67 7.9 46.2
06:50 1015 29.97 844 24.92 14.1 57.4 65 7.7 45.9
06:55 1015 29.97 844 24.92 14.6 58.2 64 7.8 46
07:00 1015 29.97 844 24.92 14.4 57.8 64 7.8 46
07:05 1015 29.97 844 24.92 14.7 58.4 63 7.9 46.2
07:10 1015 29.97 844 24.92 15 59 62 7.8 46.1
07:15 1015 29.97 844 24.92 14.5 58.2 63 7.7 45.9
07:20 1015 29.97 844 24.92 14.7 58.5 62 7.5 45.6
07:25 1015 29.97 844 24.92 15.4 59.8 60 7.9 46.2
07:30 1015 29.97 844 24.92 15.7 60.2 59 7.7 45.9
07:35 1015 29.97 844 24.92 16.1 61 57 7.6 45.8
07:40 1015 29.97 844 24.92 16.2 61.1 56 7.6 45.6
07:45 1014 29.94 844 24.92 16.5 61.8 55 7.5 45.5
07:50 1014 29.94 844 24.92 16.8 62.3 54 7.6 45.7
07:55 1015 29.97 844 24.92 16.7 62 56 8 46.4
08:00 1014 29.94 844 24.92 16.6 61.8 56 7.8 46
08:05 1014 29.94 844 24.92 16.2 61.1 59 8.3 47
08:10 1014 29.94 844 24.92 16 60.9 60 8.2 46.8
08:15 1014 29.94 844 24.92 15.6 60.1 59 7.8 46.1
08:20 1014 29.94 844 24.92 16 60.8 59 8.2 46.7
08:25 1014 29.94 844 24.92 16.1 61 59 8.2 46.8
08:30 1014 29.94 844 24.92 16.6 61.8 55 7.7 45.8
08:35 1014 29.94 844 24.92 17.6 63.8 53 8 46.4
08:40 1014 29.94 844 24.92 17.8 64.1 54 8.5 47.3
08:45 1014 29.94 843 24.89 17.4 63.2 55 8.4 47.2
08:50 1014 29.94 843 24.89 17.9 64.3 53 8.3 47
08:55 1014 29.94 843 24.89 18.8 65.9 49 8.1 46.5
09:00 1014 29.94 843 24.89 19.2 66.5 47 7.8 46
09:05 1014 29.94 843 24.89 19.1 66.3 50 8.6 47.4
09:10 1014 29.94 843 24.89 18.8 65.8 49 8.1 46.6
09:15 1014 29.94 843 24.89 19.6 67.3 49 8.6 47.5
09:20 1014 29.94 843 24.89 19.5 67.1 51 9.1 48.4
09:25 1014 29.94 843 24.89 19 66.2 51 8.7 47.7
09:30 1014 29.94 843 24.89 19.1 66.4 53 9.3 48.8
09:35 1014 29.94 843 24.89 19.4 66.9 52 9.3 48.8
09:40 1014 29.94 843 24.89 19.2 66.6 52 9.4 48.8
09:45 1014 29.94 843 24.89 18.7 65.7 51 8.5 47.3
09:50 1014 29.94 843 24.89 19.7 67.4 48 8.5 47.4
09:55 1014 29.94 843 24.89 20 67.9 50 9.3 48.7
10:00 1014 29.94 843 24.89 19.8 67.6 47 8.2 46.8
10:05 1014 29.94 843 24.89 19.4 66.8 50 8.8 47.9
10:10 1014 29.94 843 24.89 20.4 68.7 47 8.7 47.7
10:15 1014 29.94 843 24.89 20.8 69.5 45 8.8 47.8
10:20 1014 29.94 843 24.89 21.4 70.5 44 8.8 47.8
10:25 1014 29.94 843 24.89 21.7 71.1 43 8.7 47.7
10:30 1014 29.94 843 24.89 22.4 72.3 40 8.3 46.9
10:35 1013 29.91 843 24.89 21.8 71.3 43 8.7 47.7
10:40 1013 29.91 843 24.89 22 71.7 42 8.8 47.8
10:45 1013 29.91 843 24.89 21.6 70.8 43 8.5 47.3
10:50 1013 29.91 843 24.89 21.6 70.9 41 7.8 46.1
10:55 1013 29.91 843 24.89 22.4 72.3 43 9.3 48.7
11:00 1013 29.91 843 24.89 21.5 70.8 44 8.9 48.1
11:05 1013 29.91 843 24.89 22.4 72.4 41 8.8 47.9
11:10 1013 29.91 842 24.86 22.3 72.1 43 9.1 48.4
11:15 1013 29.91 842 24.86 22.4 72.4 42 9.2 48.6
11:20 1013 29.91 842 24.86 23 73.4 39 8.4 47.1
11:25 1013 29.91 842 24.86 23 73.4 40 9 48.3
11:30 1013 29.91 842 24.86 23.1 73.6 39 8.5 47.3
11:35 1013 29.91 842 24.86 23.4 74.1 38 8.5 47.3
11:40 1013 29.91 842 24.86 23.4 74.1 39 8.7 47.7
11:45 1013 29.91 842 24.86 23.5 74.3 38 8.6 47.4
11:50 1013 29.91 842 24.86 23.3 74 40 9 48.3
11:55 1013 29.91 842 24.86 23.9 75 36 8 46.5
12:00 1013 29.91 842 24.86 24.2 75.6 37 8.9 48
12:05 1013 29.91 842 24.86 23.1 73.5 39 8.6 47.5
12:10 1013 29.91 842 24.86 24 75.2 37 8.8 47.8
12:15 1013 29.91 842 24.86 24 75.2 38 9 48.1
12:20 1013 29.91 842 24.86 24.2 75.6 36 8.6 47.4
12:25 1013 29.91 842 24.86 24.3 75.7 35 8.1 46.5
12:30 1013 29.91 842 24.86 25.1 77.2 34 8.4 47.2
12:35 1013 29.91 842 24.86 25 76.9 35 8.6 47.4
12:40 1013 29.91 842 24.86 24.8 76.6 33 7.6 45.6
12:45 1013 29.91 842 24.86 25.6 78 32 8.1 46.5
12:50 1013 29.91 842 24.86 25.4 77.7 33 8 46.4
12:55 1012 29.88 842 24.86 25.7 78.2 33 8.4 47.2
13:00 1012 29.88 842 24.86 24.5 76.2 33 7.4 45.4
13:05 1012 29.88 842 24.86 25.7 78.3 31 7.6 45.6
13:10 1012 29.88 841 24.83 25.9 78.5 33 8.7 47.6
13:15 1012 29.88 841 24.83 25.6 78.1 31 7.7 45.9
13:20 1012 29.88 841 24.83 25 77.1 32 7.6 45.6
13:25 1012 29.88 841 24.83 26 78.9 30 7.2 45
13:30 1012 29.88 841 24.83 26.1 79 29 6.9 44.4
13:35 1012 29.88 841 24.83 26.6 79.8 27 6.3 43.4
13:40 1012 29.88 841 24.83 26.1 79 27 5.7 42.2
13:45 1012 29.88 841 24.83 27.3 81.2 26 6.3 43.4
13:50 1012 29.88 841 24.83 27.4 81.3 25 5.9 42.6
13:55 1012 29.88 841 24.83 27.5 81.5 25 6.1 43
14:00 1012 29.88 841 24.83 27 80.5 27 6.5 43.8
14:05 1012 29.88 841 24.83 26.8 80.3 26 6.1 43
14:10 1012 29.88 841 24.83 26.1 79 27 5.8 42.5
14:15 1012 29.88 841 24.83 26 78.7 27 5.6 42.2
14:20 1012 29.88 841 24.83 26.4 79.5 27 5.9 42.7
14:25 1012 29.88 841 24.83 26.7 80.1 27 6.3 43.4
14:30 1012 29.88 841 24.83 27.1 80.8 23 4.2 39.6
14:35 1012 29.88 841 24.83 27.7 81.9 22 4.2 39.6
14:40 1011 29.85 841 24.83 27.3 81.1 22 4 39.2
14:45 1011 29.85 841 24.83 27.2 80.9 23 4.3 39.7
14:50 1011 29.85 840 24.81 27.7 81.8 12 -3.5 25.7
14:55 1011 29.85 840 24.81 27.9 82.2 12 -4 24.8
15:00 1011 29.85 840 24.81 28.2 82.7 12 -3.5 25.8
15:05 1011 29.85 840 24.81 28.3 82.9 12 -3.5 25.8
15:10 1011 29.85 840 24.81 28.1 82.6 12 -3.5 25.8
15:15 1011 29.85 840 24.81 27.7 81.9 13 -3.3 26.1
15:20 1011 29.85 840 24.81 28.1 82.6 12 -3.4 25.9
15:25 1011 29.85 840 24.81 28.2 82.7 12 -3.2 26.2
15:30 1011 29.85 840 24.81 27.9 82.3 12 -3.9 24.9
15:35 1011 29.85 840 24.81 27.8 82 12 -3.7 25.3
15:40 1011 29.85 840 24.81 27.8 82 12 -4.4 24
15:45 1011 29.85 840 24.81 27.7 81.9 12 -4.4 24.1
15:50 1011 29.85 840 24.81 27.7 81.8 12 -4.4 24.1
15:55 1011 29.85 840 24.81 27.5 81.6 13 -3.5 25.7
16:00 1011 29.85 840 24.81 27.4 81.2 12 -3.9 25
16:05 1011 29.85 840 24.81 27.7 81.8 12 -3.8 25.1
16:10 1011 29.85 840 24.81 27.6 81.6 13 -3 26.6
16:15 1011 29.85 840 24.81 27.5 81.5 13 -2.7 27.1
16:20 1011 29.85 840 24.81 27.6 81.7 13 -3.2 26.2
16:25 1011 29.85 840 24.81 27.5 81.6 12 -4.3 24.2
16:30 1011 29.85 840 24.81 27.3 81.1 13 -3.7 25.3
16:35 1011 29.85 840 24.81 27.4 81.3 14 -2.3 27.9
16:40 1011 29.85 840 24.81 27.5 81.6 13 -3 26.6
16:45 1011 29.85 840 24.81 27.7 81.9 13 -3 26.6
16:50 1011 29.85 840 24.81 27.6 81.7 13 -3.5 25.8
16:55 1011 29.85 840 24.81 27.4 81.4 13 -2.7 27.2
17:00 1011 29.85 840 24.81 27.5 81.4 13 -3 26.6
17:05 1011 29.85 840 24.81 27.5 81.4 12 -3.8 25.2
17:10 1011 29.85 840 24.81 27.4 81.3 13 -3.5 25.8
17:15 1011 29.85 840 24.81 27.3 81.2 13 -3.6 25.5
17:20 1011 29.85 840 24.81 27.3 81.2 13 -3.6 25.6
17:25 1011 29.85 840 24.81 27.3 81.1 13 -3.3 26
17:30 1011 29.85 840 24.81 27.1 80.9 14 -2.4 27.7
17:35 1011 29.85 840 24.81 27.1 80.8 13 -3.7 25.3
17:40 1010 29.83 840 24.81 27.2 80.9 13 -3.1 26.4
17:45 1010 29.83 840 24.81 27.1 80.8 12 -4.1 24.6
17:50 1010 29.83 840 24.81 27.1 80.8 13 -3.3 26
17:55 1010 29.83 840 24.81 27.1 80.7 12 -5 23.1
18:00 1011 29.85 840 24.81 26.8 80.3 13 -3.5 25.7
18:05 1011 29.85 840 24.81 26.7 80.1 13 -3.6 25.5
18:10 1010 29.83 840 24.81 26.6 79.8 13 -3.7 25.3
18:15 1011 29.85 840 24.81 26.4 79.5 14 -3.2 26.3
18:20 1011 29.85 840 24.81 26.3 79.4 14 -2.6 27.3
18:25 1011 29.85 840 24.81 26.3 79.4 13 -3.6 25.5
18:30 1011 29.85 840 24.81 26.3 79.4 15 -2.1 28.2
18:35 1011 29.85 840 24.81 26.2 79.2 14 -2.9 26.9
18:40 1011 29.85 840 24.81 26.2 79.2 15 -2.5 27.5
18:45 1011 29.85 840 24.81 26.1 78.9 15 -2.2 28
18:50 1011 29.85 840 24.81 26 78.8 16 -1.4 29.4
18:55 1011 29.85 840 24.81 26.1 78.9 16 -1.3 29.6
19:00 1011 29.85 840 24.81 26 78.7 18 0.1 32.1
19:05 1011 29.85 840 24.81 25.8 78.4 19 0.8 33.4
19:10 1011 29.85 840 24.81 25.5 77.9 20 1.1 34
19:15 1011 29.85 840 24.81 25.1 77.2 20 1.1 34
19:20 1011 29.85 840 24.81 24.6 76.3 20 0.2 32.3
19:25 1011 29.85 840 24.81 24.4 76 20 0.5 32.8
19:30 1011 29.85 840 24.81 24.4 75.8 20 -0.1 31.8
19:35 1011 29.85 840 24.81 24.4 75.9 19 -0.3 31.4
19:40 1011 29.85 840 24.81 24.4 75.9 19 -0.8 30.5
19:45 1011 29.85 840 24.81 24.2 75.6 18 -1.6 29.1
19:50 1011 29.85 840 24.81 24.2 75.6 17 -1.9 28.6
19:55 1011 29.85 840 24.81 24.1 75.4 17 -2.3 27.8
20:00 1011 29.85 841 24.83 23.8 74.9 18 -1.3 29.6
20:05 1011 29.85 841 24.83 24.1 75.3 15 -4.3 24.3
20:10 1011 29.85 841 24.83 24.1 75.4 16 -3 26.7
20:15 1011 29.85 841 24.83 23.9 74.9 16 -3.6 25.5
20:20 1011 29.85 841 24.83 23.8 74.8 17 -2.6 27.2
20:25 1011 29.85 840 24.81 23.6 74.6 17 -2.7 27.2
20:30 1011 29.85 840 24.81 23.6 74.5 17 -2.3 27.8
20:35 1011 29.85 840 24.81 23.4 74.1 17 -2.5 27.6
20:40 1011 29.85 840 24.81 23.7 74.6 16 -3.1 26.4
20:45 1012 29.88 841 24.83 23.7 74.7 18 -1.4 29.4
20:50 1012 29.88 841 24.83 23.4 74.2 20 -0.3 31.4
20:55 1012 29.88 841 24.83 23.3 74 18 -2.1 28.3
21:00 1012 29.88 841 24.83 23.4 74.2 17 -2.7 27.1
21:05 1012 29.88 841 24.83 23.6 74.5 18 -2.2 28.1
21:10 1012 29.88 841 24.83 23.4 74 20 -0.7 30.7
21:15 1012 29.88 841 24.83 22.6 72.7 22 -0.2 31.7
21:20 1012 29.88 841 24.83 22.2 72 22 -0.1 31.8
21:25 1012 29.88 841 24.83 22 71.7 23 0.1 32.1
21:30 1012 29.88 841 24.83 21.8 71.2 24 0.3 32.6
21:35 1012 29.88 841 24.83 21.6 71 24 0.2 32.3
21:40 1012 29.88 841 24.83 21.6 70.9 24 0.1 32.2
21:45 1012 29.88 841 24.83 21.6 70.8 24 0.4 32.7
21:50 1012 29.88 841 24.83 21.5 70.7 24 0.3 32.5
21:55 1012 29.88 841 24.83 21.5 70.7 23 -0.2 31.6
22:00 1012 29.88 841 24.83 21.7 71 24 0.6 33
22:05 1012 29.88 841 24.83 21.5 70.6 26 1.3 34.4
22:10 1012 29.88 841 24.83 21 69.7 29 2.4 36.2
22:15 1012 29.88 841 24.83 20.2 68.4 35 4.5 40.2
22:20 1013 29.91 842 24.86 19 66.2 43 6.3 43.3
22:25 1013 29.91 842 24.86 18.1 64.6 48 7.1 44.7
22:30 1013 29.91 842 24.86 17.6 63.6 50 7.3 45.1
22:35 1013 29.91 842 24.86 17.4 63.3 48 6.5 43.8
22:40 1013 29.91 842 24.86 17.5 63.5 48 6.6 43.8
22:45 1013 29.91 842 24.86 17.5 63.4 48 6.5 43.7
22:50 1013 29.91 842 24.86 17.5 63.5 48 6.5 43.6
22:55 1013 29.91 843 24.89 17.1 62.7 53 7.6 45.7
23:00 1014 29.94 843 24.89 16.6 61.8 53 6.9 44.5
23:05 1014 29.94 843 24.89 16.5 61.7 54 7.3 45.1
23:10 1014 29.94 843 24.89 16.3 61.3 56 7.6 45.7
23:15 1014 29.94 843 24.89 16.2 61.1 55 7.2 45
23:20 1014 29.94 843 24.89 16.1 61.1 55 7.1 44.8
23:25 1014 29.94 844 24.92 16.2 61.1 51 6.1 43
23:30 1015 29.97 844 24.92 16.3 61.4 53 6.9 44.4
23:35 1014 29.94 844 24.92 16.1 60.9 52 6.4 43.5
23:40 1014 29.94 844 24.92 15.7 60.3 54 6.4 43.5
23:45 1015 29.97 844 24.92 15.2 59.3 55 6.3 43.3
23:50 1015 29.97 844 24.92 15.1 59.2 55 6.1 43
23:55 1015 29.97 844 24.92 15.1 59.1 55 6.1 42.9
24:00 1015 29.97 844 24.92 14.9 58.8 55 6.1 43